Time;durP1;ratioP1;P1;durP2;ratioP2;P2;SDS_P1;SDS_P2;PMS_P1;PMS_P2;Temp;Humidity;BMP_temperature;BMP_pressure;BME280_temperature;BME280_humidity;BME280_pressure;Samples;Min_cycle;Max_cycle;Signal;HPM_P1;HPM_P2
2021/07/18 00:02:24;25618.00;0.09;45.00;0.00;0.00;0.62;;;;;24.20;1.30;;;;;;2581852;55;1121;-86
2021/07/18 00:04:55;243084.00;0.81;420.06;84347.00;0.28;146.55;;;;;23.80;2.50;;;;;;2581832;55;1154;-85
2021/07/18 00:07:22;94011.00;0.31;163.23;13865.00;0.05;24.64;;;;;23.80;3.10;;;;;;2583978;55;1288;-85
2021/07/18 00:09:49;123714.00;0.41;214.49;0.00;0.00;0.62;;;;;23.70;2.90;;;;;;2584004;55;1905;-85
2021/07/18 00:12:16;39782.00;0.13;69.51;0.00;0.00;0.62;;;;;23.50;3.00;;;;;;2581831;55;1112;-85
2021/07/18 00:14:43;28792.00;0.10;50.49;0.00;0.00;0.62;;;;;23.20;3.90;;;;;;2581802;55;1122;-86
2021/07/18 00:17:10;54486.00;0.18;94.94;0.00;0.00;0.62;;;;;23.40;3.60;;;;;;2581784;55;1352;-85
2021/07/18 00:19:37;0.00;0.00;0.62;0.00;0.00;0.62;;;;;23.30;3.40;;;;;;2581731;55;1099;-84
2021/07/18 00:22:06;7252.00;0.02;13.19;0.00;0.00;0.62;;;;;23.30;3.50;;;;;;2581828;55;1111;-85
2021/07/18 00:24:33;71910.00;0.24;125.06;0.00;0.00;0.62;;;;;23.20;4.30;;;;;;2581778;55;1078;-86
2021/07/18 00:27:01;92949.00;0.31;161.40;0.00;0.00;0.62;;;;;23.00;4.60;;;;;;2583966;55;1342;-86
2021/07/18 00:29:27;96980.00;0.32;168.36;0.00;0.00;0.62;;;;;23.10;4.60;;;;;;2581768;55;1902;-85
2021/07/18 00:31:54;129870.00;0.43;225.11;0.00;0.00;0.62;;;;;23.40;3.70;;;;;;2583937;55;887;-86
2021/07/18 00:34:21;202146.00;0.67;349.62;65843.00;0.22;114.58;;;;;23.40;3.50;;;;;;2584033;55;938;-86
2021/07/18 00:36:48;136829.00;0.46;237.10;0.00;0.00;0.62;;;;;23.40;3.30;;;;;;2581770;55;1343;-86
2021/07/18 00:39:17;49317.00;0.16;86.00;0.00;0.00;0.62;;;;;23.50;3.20;;;;;;2584030;55;993;-85
2021/07/18 00:41:44;71391.00;0.24;124.16;0.00;0.00;0.62;;;;;23.50;2.60;;;;;;2581782;55;1122;-87
2021/07/18 00:44:11;46783.00;0.16;81.62;0.00;0.00;0.62;;;;;23.40;2.80;;;;;;2581798;55;1109;-86
2021/07/18 00:46:38;105710.00;0.35;183.43;0.00;0.00;0.62;;;;;23.20;2.90;;;;;;2581770;55;1337;-86
2021/07/18 00:49:05;23615.00;0.08;41.53;0.00;0.00;0.62;;;;;23.10;3.40;;;;;;2583951;55;1898;-86
2021/07/18 00:51:32;0.00;0.00;0.62;0.00;0.00;0.62;;;;;23.20;2.90;;;;;;2581805;55;1089;-86
2021/07/18 00:54:01;34908.00;0.12;61.08;0.00;0.00;0.62;;;;;23.10;3.00;;;;;;2581723;55;1034;-86
2021/07/18 00:56:29;78427.00;0.26;136.32;0.00;0.00;0.62;;;;;22.90;3.90;;;;;;2581745;55;1275;-86
2021/07/18 00:58:58;322038.00;1.07;555.80;0.00;0.00;0.62;;;;;22.60;4.30;;;;;;2581763;55;1102;-86
2021/07/18 01:01:28;0.00;0.00;0.62;0.00;0.00;0.62;;;;;22.50;4.50;;;;;;2581777;55;1054;-86
2021/07/18 01:03:55;95927.00;0.32;166.54;0.00;0.00;0.62;;;;;22.60;4.30;;;;;;2581808;55;1085;-86
2021/07/18 01:06:22;81224.00;0.27;141.15;15435.00;0.05;27.36;;;;;22.50;3.40;;;;;;2570536;55;1402;-86
2021/07/18 01:08:49;93935.00;0.31;163.10;0.00;0.00;0.62;;;;;22.40;4.10;;;;;;2581764;55;1947;-86
2021/07/18 01:11:16;31793.00;0.11;55.69;0.00;0.00;0.62;;;;;22.60;3.30;;;;;;2581777;55;1089;-86
2021/07/18 01:13:44;0.00;0.00;0.62;0.00;0.00;0.62;;;;;22.50;3.60;;;;;;2581780;55;1116;-86
2021/07/18 01:16:11;0.00;0.00;0.62;0.00;0.00;0.62;;;;;22.50;2.70;;;;;;2581734;55;1270;-85
2021/07/18 01:18:39;26353.00;0.09;46.27;0.00;0.00;0.62;;;;;22.30;3.70;;;;;;2581792;55;1055;-86
2021/07/18 01:21:07;0.00;0.00;0.62;0.00;0.00;0.62;;;;;22.30;3.20;;;;;;2581765;55;1048;-85
2021/07/18 01:23:37;246938.00;0.82;426.68;20495.00;0.07;36.13;;;;;22.30;3.80;;;;;;2583921;55;1690;-85
2021/07/18 01:26:04;70055.00;0.23;121.86;0.00;0.00;0.62;;;;;22.30;3.00;;;;;;2581747;55;1422;-86
2021/07/18 01:28:31;18820.00;0.06;33.23;0.00;0.00;0.62;;;;;22.30;3.40;;;;;;2581692;55;1117;-86
2021/07/18 01:30:59;0.00;0.00;0.62;0.00;0.00;0.62;;;;;22.20;3.10;;;;;;2583927;55;1907;-86
2021/07/18 01:33:26;82311.00;0.27;143.03;0.00;0.00;0.62;;;;;22.00;3.70;;;;;;2581754;55;1088;-85
2021/07/18 01:35:53;185841.00;0.62;321.55;35696.00;0.12;62.44;;;;;21.80;4.00;;;;;;2581705;55;1260;-86
2021/07/18 01:38:20;117866.00;0.39;204.40;9411.00;0.03;16.93;;;;;21.90;4.20;;;;;;2581744;55;1082;-85
2021/07/18 01:40:48;82762.00;0.28;143.81;0.00;0.00;0.62;;;;;22.10;4.50;;;;;;2581734;55;1118;-86
2021/07/18 01:43:16;94507.00;0.32;164.09;0.00;0.00;0.62;;;;;22.10;3.10;;;;;;2581743;55;1110;-85
2021/07/18 01:45:43;132848.00;0.44;230.24;0.00;0.00;0.62;;;;;22.10;2.70;;;;;;2581702;55;1274;-85
2021/07/18 01:48:10;0.00;0.00;0.62;0.00;0.00;0.62;;;;;22.10;2.20;;;;;;2581707;55;1014;-85
2021/07/18 01:50:37;97693.00;0.33;169.59;0.00;0.00;0.62;;;;;22.30;2.10;;;;;;2581733;55;1959;-86
2021/07/18 01:53:05;40528.00;0.14;70.80;0.00;0.00;0.62;;;;;22.40;1.70;;;;;;2582794;55;1048;-85
2021/07/18 01:55:33;49802.00;0.17;86.84;0.00;0.00;0.62;;;;;22.30;1.20;;;;;;2581654;55;1286;-85
2021/07/18 01:58:02;0.00;0.00;0.62;0.00;0.00;0.62;;;;;22.40;1.20;;;;;;2581721;55;1094;-85
2021/07/18 02:00:28;474234.00;1.58;817.48;116579.00;0.39;202.18;;;;;22.40;1.40;;;;;;2581705;55;1073;-86
2021/07/18 02:02:55;7366.00;0.02;13.39;0.00;0.00;0.62;;;;;22.40;1.10;;;;;;2581745;55;1042;-86
2021/07/18 02:05:23;0.00;0.00;0.62;0.00;0.00;0.62;;;;;22.40;1.30;;;;;;2581703;55;1360;-86
2021/07/18 02:07:51;51291.00;0.17;89.42;0.00;0.00;0.62;;;;;22.40;1.00;;;;;;2581709;55;1113;-86
2021/07/18 02:10:20;222835.00;0.74;385.22;91121.00;0.30;158.24;;;;;22.40;1.00;;;;;;2581698;55;1954;-86
2021/07/18 02:12:48;25884.00;0.09;45.46;0.00;0.00;0.62;;;;;22.40;1.00;;;;;;2581707;55;1031;-86
2021/07/18 02:15:18;43071.00;0.14;75.20;0.00;0.00;0.62;;;;;22.40;1.00;;;;;;2581714;55;1041;-86
2021/07/18 02:17:45;0.00;0.00;0.62;0.00;0.00;0.62;;;;;22.10;1.10;;;;;;2581753;55;1293;-85
2021/07/18 02:20:17;206800.00;0.69;357.63;33683.00;0.11;58.96;;;;;22.20;1.40;;;;;;2583944;55;964;-85
2021/07/18 02:22:46;163829.00;0.55;283.64;39534.00;0.13;69.08;;;;;22.20;1.20;;;;;;2581724;55;1099;-86
2021/07/18 02:25:15;34130.00;0.11;59.73;0.00;0.00;0.62;;;;;22.10;1.80;;;;;;2583892;55;1138;-86
2021/07/18 02:27:42;82699.00;0.28;143.70;0.00;0.00;0.62;;;;;22.20;1.10;;;;;;2581712;55;1093;-85
2021/07/18 02:30:11;90923.00;0.30;157.90;0.00;0.00;0.62;;;;;22.30;1.20;;;;;;2581654;55;1943;-86
2021/07/18 02:32:41;0.00;0.00;0.62;0.00;0.00;0.62;;;;;22.30;1.00;;;;;;2581703;55;1060;-87
2021/07/18 02:35:11;22325.00;0.07;39.30;0.00;0.00;0.62;;;;;22.40;1.00;;;;;;2581710;55;1125;-86
2021/07/18 02:37:38;59299.00;0.20;103.26;0.00;0.00;0.62;;;;;22.40;1.00;;;;;;2581668;55;1195;-85
2021/07/18 02:40:06;226973.00;0.76;392.34;94264.00;0.31;163.67;;;;;22.50;1.00;;;;;;2581664;55;1083;-86
2021/07/18 02:42:34;0.00;0.00;0.62;0.00;0.00;0.62;;;;;22.30;1.10;;;;;;2581632;55;1015;-85
2021/07/18 02:45:01;0.00;0.00;0.62;0.00;0.00;0.62;;;;;22.30;1.00;;;;;;2581692;55;1067;-86
2021/07/18 02:47:28;94708.00;0.32;164.44;0.00;0.00;0.62;;;;;22.40;1.00;;;;;;2581635;55;1385;-86
2021/07/18 02:49:56;61738.00;0.21;107.48;0.00;0.00;0.62;;;;;22.40;1.00;;;;;;2581648;55;1943;-86
2021/07/18 02:52:23;75857.00;0.25;131.88;0.00;0.00;0.62;;;;;22.40;1.00;;;;;;2581645;55;1161;-86
2021/07/18 02:54:50;93915.00;0.31;163.07;26286.00;0.09;46.15;;;;;22.30;1.00;;;;;;2581615;55;963;-85
2021/07/18 02:57:17;0.00;0.00;0.62;0.00;0.00;0.62;;;;;22.20;1.00;;;;;;2581633;55;1288;-86
2021/07/18 02:59:44;2593.00;0.01;5.11;0.00;0.00;0.62;;;;;22.20;1.70;;;;;;2581667;55;1102;-86
2021/07/18 03:02:11;23807.00;0.08;41.86;0.00;0.00;0.62;;;;;22.40;1.00;;;;;;2581652;55;1091;-86
2021/07/18 03:04:38;60611.00;0.20;105.53;0.00;0.00;0.62;;;;;22.60;1.00;;;;;;2581657;55;1121;-86
2021/07/18 03:07:06;99232.00;0.33;172.25;33481.00;0.11;58.61;;;;;22.60;1.00;;;;;;2581605;55;1384;-86
2021/07/18 03:09:33;22937.00;0.08;40.36;0.00;0.00;0.62;;;;;22.60;1.00;;;;;;2583746;55;1972;-86
2021/07/18 03:12:00;160839.00;0.54;278.48;33661.00;0.11;58.92;;;;;22.50;1.00;;;;;;2581631;55;1035;-86
2021/07/18 03:14:27;0.00;0.00;0.62;0.00;0.00;0.62;;;;;22.30;1.00;;;;;;2581623;55;1110;-85
2021/07/18 03:16:54;0.00;0.00;0.62;0.00;0.00;0.62;;;;;22.30;1.00;;;;;;2581622;55;1366;-85
2021/07/18 03:19:21;12013.00;0.04;21.44;0.00;0.00;0.62;;;;;22.40;1.00;;;;;;2581629;55;1026;-86
2021/07/18 03:21:48;0.00;0.00;0.62;0.00;0.00;0.62;;;;;22.70;1.00;;;;;;2581635;55;1042;-86
2021/07/18 03:24:17;88808.00;0.30;154.25;13318.00;0.04;23.70;;;;;22.50;1.00;;;;;;2581589;55;1161;-86
2021/07/18 03:26:44;136746.00;0.46;236.96;43157.00;0.14;75.35;;;;;22.60;1.00;;;;;;2581572;55;1383;-86
2021/07/18 03:29:10;83694.00;0.28;145.42;0.00;0.00;0.62;;;;;22.10;1.00;;;;;;2581598;55;1109;-86
2021/07/18 03:31:37;374998.00;1.25;646.83;87162.00;0.29;151.41;;;;;22.00;1.00;;;;;;2583815;55;1960;-86
2021/07/18 03:34:04;225869.00;0.75;390.44;91265.00;0.30;158.49;;;;;21.80;1.00;;;;;;2581581;55;1083;-85
2021/07/18 03:36:31;521095.00;1.74;898.15;145324.00;0.48;251.75;;;;;21.60;1.00;;;;;;2581534;55;1256;-86
2021/07/18 03:38:58;89691.00;0.30;155.77;0.00;0.00;0.62;;;;;21.30;1.40;;;;;;2583820;55;948;-86
2021/07/18 03:41:26;0.00;0.00;0.62;0.00;0.00;0.62;;;;;21.00;1.60;;;;;;2581606;55;1204;-86
2021/07/18 03:43:53;0.00;0.00;0.62;0.00;0.00;0.62;;;;;20.80;2.80;;;;;;2583806;55;971;-85
2021/07/18 03:46:20;196395.00;0.65;339.72;0.00;0.00;0.62;;;;;20.60;3.20;;;;;;2583760;55;1261;-86
2021/07/18 03:48:47;15365.00;0.05;27.24;0.00;0.00;0.62;;;;;20.60;4.40;;;;;;2581578;55;1081;-86
2021/07/18 03:51:14;35562.00;0.12;62.21;0.00;0.00;0.62;;;;;20.90;2.50;;;;;;2583745;55;1948;-85
2021/07/18 03:53:41;0.00;0.00;0.62;0.00;0.00;0.62;;;;;21.10;2.70;;;;;;2581348;55;1090;-86
2021/07/18 03:56:09;118864.00;0.40;206.12;0.00;0.00;0.62;;;;;21.10;1.30;;;;;;2584006;55;1344;-86
2021/07/18 03:58:38;0.00;0.00;0.62;0.00;0.00;0.62;;;;;21.40;3.20;;;;;;2581838;55;1137;-85
2021/07/18 04:01:09;0.00;0.00;0.62;0.00;0.00;0.62;;;;;21.80;2.50;;;;;;2581835;55;1116;-87
2021/07/18 04:03:36;0.00;0.00;0.62;0.00;0.00;0.62;;;;;22.20;2.00;;;;;;2584006;55;1486;-87
2021/07/18 04:06:04;70515.00;0.24;122.65;0.00;0.00;0.62;;;;;22.40;1.40;;;;;;2583995;55;1385;-87
2021/07/18 04:08:31;0.00;0.00;0.62;0.00;0.00;0.62;;;;;22.60;2.20;;;;;;2581831;55;1051;-87
2021/07/18 04:10:58;190802.00;0.64;330.09;64576.00;0.22;112.39;;;;;22.60;1.00;;;;;;2581775;55;1901;-87
2021/07/18 04:13:25;0.00;0.00;0.62;0.00;0.00;0.62;;;;;22.80;1.00;;;;;;2581818;55;1112;-86
2021/07/18 04:15:53;0.00;0.00;0.62;0.00;0.00;0.62;;;;;22.60;1.00;;;;;;2584015;55;1416;-86
2021/07/18 04:18:20;106100.00;0.35;184.10;0.00;0.00;0.62;;;;;22.50;1.00;;;;;;2584053;55;957;-87
2021/07/18 04:20:47;0.00;0.00;0.62;0.00;0.00;0.62;;;;;22.30;1.00;;;;;;2581812;55;1102;-87
2021/07/18 04:23:14;0.00;0.00;0.62;0.00;0.00;0.62;;;;;22.10;1.00;;;;;;2584005;55;958;-86
2021/07/18 04:25:41;97642.00;0.33;169.50;0.00;0.00;0.62;;;;;22.10;1.00;;;;;;2581789;55;1358;-86
2021/07/18 04:28:07;192296.00;0.64;332.66;25760.00;0.09;45.24;;;;;22.30;1.00;;;;;;2584045;55;981;-87
2021/07/18 04:30:34;0.00;0.00;0.62;0.00;0.00;0.62;;;;;22.60;1.20;;;;;;2581782;55;1896;-86
2021/07/18 04:33:03;0.00;0.00;0.62;0.00;0.00;0.62;;;;;22.80;1.00;;;;;;2581821;55;1106;-87
2021/07/18 04:35:29;0.00;0.00;0.62;0.00;0.00;0.62;;;;;22.70;1.00;;;;;;2581786;55;1369;-87
2021/07/18 04:37:56;0.00;0.00;0.62;0.00;0.00;0.62;;;;;22.60;1.00;;;;;;2581826;55;1126;-87
2021/07/18 04:40:24;0.00;0.00;0.62;0.00;0.00;0.62;;;;;22.50;1.00;;;;;;2584011;55;957;-86
2021/07/18 04:42:50;0.00;0.00;0.62;0.00;0.00;0.62;;;;;22.40;1.00;;;;;;2581803;55;1067;-86
2021/07/18 04:45:17;0.00;0.00;0.62;0.00;0.00;0.62;;;;;22.20;1.00;;;;;;2581780;55;1286;-86
2021/07/18 04:47:45;0.00;0.00;0.62;0.00;0.00;0.62;;;;;22.20;1.00;;;;;;2581810;55;1121;-87
2021/07/18 04:50:15;0.00;0.00;0.62;0.00;0.00;0.62;;;;;22.30;1.00;;;;;;2583969;55;1959;-86
2021/07/18 04:52:42;0.00;0.00;0.62;0.00;0.00;0.62;;;;;22.40;1.00;;;;;;2581737;55;1087;-87
2021/07/18 04:55:11;100417.00;0.33;174.29;32119.00;0.11;56.25;;;;;22.30;1.00;;;;;;2581731;55;1094;-86
2021/07/18 04:57:38;127205.00;0.42;220.51;0.00;0.00;0.62;;;;;22.00;1.00;;;;;;2581768;55;1265;-86
2021/07/18 05:00:06;0.00;0.00;0.62;0.00;0.00;0.62;;;;;22.10;1.00;;;;;;2583986;55;922;-86
2021/07/18 05:02:33;0.00;0.00;0.62;0.00;0.00;0.62;;;;;22.10;1.00;;;;;;2581812;55;993;-87
2021/07/18 05:05:00;0.00;0.00;0.62;0.00;0.00;0.62;;;;;22.20;1.00;;;;;;2581718;55;1088;-87
2021/07/18 05:07:28;56404.00;0.19;98.26;0.00;0.00;0.62;;;;;22.20;1.00;;;;;;2583979;55;1277;-86
2021/07/18 05:09:55;0.00;0.00;0.62;0.00;0.00;0.62;;;;;22.10;1.00;;;;;;2581790;55;1133;-87
2021/07/18 05:12:22;76337.00;0.25;132.71;0.00;0.00;0.62;;;;;22.30;1.00;;;;;;2581747;55;1970;-87
2021/07/18 05:14:49;105480.00;0.35;183.03;39546.00;0.13;69.10;;;;;22.50;1.00;;;;;;2581777;55;1022;-87
2021/07/18 05:17:16;61283.00;0.20;106.69;0.00;0.00;0.62;;;;;22.40;1.00;;;;;;2581750;55;1370;-86
2021/07/18 05:19:43;59517.00;0.20;103.64;0.00;0.00;0.62;;;;;22.50;1.00;;;;;;2581778;55;1124;-87
2021/07/18 05:22:10;0.00;0.00;0.62;0.00;0.00;0.62;;;;;22.50;1.00;;;;;;2581781;55;1088;-86
2021/07/18 05:24:38;0.00;0.00;0.62;0.00;0.00;0.62;;;;;22.30;1.00;;;;;;2581760;55;1070;-86
2021/07/18 05:27:05;0.00;0.00;0.62;0.00;0.00;0.62;;;;;22.20;1.00;;;;;;2581745;55;1377;-87
2021/07/18 05:29:32;40889.00;0.14;71.43;0.00;0.00;0.62;;;;;22.30;1.00;;;;;;2583943;55;937;-86
2021/07/18 05:31:59;0.00;0.00;0.62;0.00;0.00;0.62;;;;;22.40;1.00;;;;;;2581721;55;1935;-85
2021/07/18 05:34:26;22801.00;0.08;40.12;0.00;0.00;0.62;;;;;22.40;1.00;;;;;;2581771;55;1070;-85
2021/07/18 05:36:52;0.00;0.00;0.62;0.00;0.00;0.62;;;;;22.70;1.00;;;;;;2581733;55;1367;-85
2021/07/18 05:39:19;73451.00;0.24;127.72;0.00;0.00;0.62;;;;;23.10;1.00;;;;;;2583950;55;931;-85
2021/07/18 05:41:48;9916.00;0.03;17.80;0.00;0.00;0.62;;;;;23.60;1.00;;;;;;2581740;55;1058;-85
2021/07/18 05:44:14;73026.00;0.24;126.99;0.00;0.00;0.62;;;;;24.00;1.00;;;;;;2581729;55;1093;-86
2021/07/18 05:46:41;0.00;0.00;0.62;0.00;0.00;0.62;;;;;24.10;1.00;;;;;;2581698;55;1243;-84
2021/07/18 05:49:08;0.00;0.00;0.62;0.00;0.00;0.62;;;;;24.60;1.00;;;;;;2581704;55;1116;-85
2021/07/18 05:51:36;0.00;0.00;0.62;0.00;0.00;0.62;;;;;25.60;1.00;;;;;;2581684;55;1902;-84
2021/07/18 05:54:03;0.00;0.00;0.62;0.00;0.00;0.62;;;;;27.60;1.00;;;;;;2581628;55;934;-86
2021/07/18 05:56:30;0.00;0.00;0.62;0.00;0.00;0.62;;;;;29.00;1.00;;;;;;2581604;55;1327;-87
2021/07/18 05:58:58;0.00;0.00;0.62;0.00;0.00;0.62;;;;;30.50;1.00;;;;;;2581685;55;1078;-87
2021/07/18 06:01:25;345856.00;1.15;596.74;38761.00;0.13;67.74;;;;;30.40;1.00;;;;;;2583896;55;2106;-87
2021/07/18 06:03:52;0.00;0.00;0.62;0.00;0.00;0.62;;;;;31.00;1.00;;;;;;2581664;55;1131;-86
2021/07/18 06:06:19;25240.00;0.08;44.34;0.00;0.00;0.62;;;;;31.30;1.00;;;;;;2583867;55;1261;-86
2021/07/18 06:08:46;0.00;0.00;0.62;0.00;0.00;0.62;;;;;32.40;1.00;;;;;;2581720;55;1016;-86
2021/07/18 06:11:13;8062.00;0.03;14.59;0.00;0.00;0.62;;;;;33.30;1.00;;;;;;2581684;55;1943;-88
2021/07/18 06:13:40;307592.00;1.03;530.97;27402.00;0.09;48.09;;;;;33.70;1.00;;;;;;2583816;55;1729;-86
2021/07/18 06:16:09;121042.00;0.40;209.88;0.00;0.00;0.62;;;;;33.60;1.00;;;;;;2581661;55;1370;-84
2021/07/18 06:18:36;74890.00;0.25;130.21;0.00;0.00;0.62;;;;;33.40;1.00;;;;;;2581580;55;1105;-84
2021/07/18 06:21:04;0.00;0.00;0.62;0.00;0.00;0.62;;;;;33.20;1.00;;;;;;2581717;55;1013;-84
2021/07/18 06:23:30;51657.00;0.17;90.05;0.00;0.00;0.62;;;;;34.40;1.00;;;;;;2583870;55;937;-84
2021/07/18 06:25:57;56221.00;0.19;97.94;0.00;0.00;0.62;;;;;34.40;1.00;;;;;;2581629;55;1303;-84
2021/07/18 06:28:24;0.00;0.00;0.62;0.00;0.00;0.62;;;;;34.50;1.00;;;;;;2581703;55;1129;-86
2021/07/18 06:30:54;0.00;0.00;0.62;0.00;0.00;0.62;;;;;33.90;1.00;;;;;;2583861;55;1948;-84
2021/07/18 06:33:22;224474.00;0.75;388.04;88260.00;0.29;153.30;;;;;34.10;1.00;;;;;;2581519;55;1058;-83
2021/07/18 06:35:49;576137.00;1.92;993.03;283785.00;0.95;490.04;;;;;34.20;1.00;;;;;;2581546;55;1329;-85
2021/07/18 06:38:16;34062.00;0.11;59.61;0.00;0.00;0.62;;;;;35.30;1.00;;;;;;2581591;55;1021;-84
2021/07/18 06:40:44;231318.00;0.77;399.82;76222.00;0.25;132.51;;;;;35.60;1.00;;;;;;2583710;55;1019;-86
2021/07/18 06:43:11;0.00;0.00;0.62;0.00;0.00;0.62;;;;;35.70;1.00;;;;;;2581668;55;1082;-85
2021/07/18 06:45:38;27681.00;0.09;48.57;0.00;0.00;0.62;;;;;35.20;1.00;;;;;;2581642;55;1274;-85
2021/07/18 06:48:05;64888.00;0.22;112.93;0.00;0.00;0.62;;;;;35.70;1.00;;;;;;2581680;55;1074;-85
2021/07/18 06:50:34;7069.00;0.02;12.87;0.00;0.00;0.62;;;;;36.20;1.00;;;;;;2581626;55;1893;-84
2021/07/18 06:53:01;0.00;0.00;0.62;0.00;0.00;0.62;;;;;36.20;1.00;;;;;;2581188;55;1147;-85
2021/07/18 06:55:28;0.00;0.00;0.62;0.00;0.00;0.62;;;;;36.80;1.00;;;;;;2581254;55;1387;-86
2021/07/18 06:57:55;0.00;0.00;0.62;0.00;0.00;0.62;;;;;36.10;1.00;;;;;;2581606;55;1084;-83
2021/07/18 07:00:23;18480.00;0.06;32.64;0.00;0.00;0.62;;;;;35.80;1.00;;;;;;2581642;55;1146;-84
2021/07/18 07:02:50;224011.00;0.75;387.24;20616.00;0.07;36.34;;;;;35.00;1.00;;;;;;2581589;55;1071;-85
2021/07/18 07:05:17;162840.00;0.54;281.93;0.00;0.00;0.62;;;;;35.40;1.00;;;;;;2581603;55;1057;-85
2021/07/18 07:07:47;0.00;0.00;0.62;0.00;0.00;0.62;;;;;35.60;1.00;;;;;;2581566;55;1089;-84
2021/07/18 07:10:15;0.00;0.00;0.62;0.00;0.00;0.62;;;;;36.10;1.00;;;;;;2581567;55;1086;-86
2021/07/18 07:12:43;0.00;0.00;0.62;0.00;0.00;0.62;;;;;35.20;1.00;;;;;;2581488;55;1949;-84
2021/07/18 07:15:11;84087.00;0.28;146.10;16425.00;0.05;29.08;;;;;34.70;1.00;;;;;;2581504;55;1210;-86
2021/07/18 07:17:39;0.00;0.00;0.62;0.00;0.00;0.62;;;;;34.70;1.00;;;;;;2583701;55;1228;-87
2021/07/18 07:20:08;0.00;0.00;0.62;0.00;0.00;0.62;;;;;33.30;1.00;;;;;;2581532;55;1161;-87
2021/07/18 07:22:35;0.00;0.00;0.62;0.00;0.00;0.62;;;;;33.00;1.00;;;;;;2581509;55;1289;-87
2021/07/18 07:25:04;117646608.00;392.16;65958268.00;0.00;0.00;0.62;;;;;33.00;1.00;;;;;;2581400;55;1091;-86
2021/07/18 07:27:31;40982.00;0.14;71.59;0.00;0.00;0.62;;;;;34.20;1.00;;;;;;2581497;55;1342;-85
2021/07/18 07:29:58;0.00;0.00;0.62;0.00;0.00;0.62;;;;;34.80;1.00;;;;;;2583973;55;972;-85
2021/07/18 07:32:25;6799.00;0.02;12.40;0.00;0.00;0.62;;;;;35.50;1.00;;;;;;2581771;55;1905;-85
2021/07/18 07:34:52;100919.00;0.34;175.16;0.00;0.00;0.62;;;;;35.70;1.00;;;;;;2581765;55;1042;-85
2021/07/18 07:37:23;280400.00;0.93;484.23;79207.00;0.26;137.67;;;;;35.50;1.00;;;;;;2581775;55;1356;-85
2021/07/18 07:39:51;42691.00;0.14;74.54;0.00;0.00;0.62;;;;;35.00;1.00;;;;;;2584027;55;1013;-87
2021/07/18 07:42:19;0.00;0.00;0.62;0.00;0.00;0.62;;;;;35.40;1.00;;;;;;2574865;55;1090;-86
2021/07/18 07:44:46;0.00;0.00;0.62;0.00;0.00;0.62;;;;;35.00;1.00;;;;;;2581691;55;1125;-85
2021/07/18 07:47:13;246602.00;0.82;426.11;113743.00;0.38;197.29;;;;;35.20;1.00;;;;;;2581723;55;1346;-85
2021/07/18 07:49:40;0.00;0.00;0.62;0.00;0.00;0.62;;;;;35.50;1.00;;;;;;2581789;55;1093;-85
2021/07/18 07:52:07;0.00;0.00;0.62;0.00;0.00;0.62;;;;;35.30;1.00;;;;;;2570246;55;1949;-85
2021/07/18 07:54:34;206341.00;0.69;356.84;55894.00;0.19;97.38;;;;;35.50;1.00;;;;;;2581729;55;1094;-86
2021/07/18 07:57:01;116052.00;0.39;201.27;51437.00;0.17;89.67;;;;;35.20;1.00;;;;;;2581771;55;1357;-86
2021/07/18 07:59:29;168791.00;0.56;292.18;68736.00;0.23;119.58;;;;;35.10;1.00;;;;;;2581736;55;1085;-86
2021/07/18 08:01:56;0.00;0.00;0.62;0.00;0.00;0.62;;;;;35.00;1.00;;;;;;2581768;55;1113;-85
2021/07/18 08:04:23;45741.00;0.15;79.82;0.00;0.00;0.62;;;;;34.90;1.00;;;;;;2581777;55;1141;-86
2021/07/18 08:06:50;17903.00;0.06;31.64;0.00;0.00;0.62;;;;;33.60;1.00;;;;;;2581772;55;1335;-87
2021/07/18 08:09:16;24871.00;0.08;43.70;0.00;0.00;0.62;;;;;32.30;1.00;;;;;;2581784;55;1113;-87
2021/07/18 08:11:43;0.00;0.00;0.62;0.00;0.00;0.62;;;;;32.60;1.00;;;;;;2581772;55;1906;-87
2021/07/18 08:14:10;166720.00;0.56;288.62;41129.00;0.14;71.84;;;;;32.70;1.00;;;;;;2581806;55;1117;-85
2021/07/18 08:16:39;33783.00;0.11;59.13;0.00;0.00;0.62;;;;;33.60;1.00;;;;;;2581693;55;1333;-84
2021/07/18 08:19:06;68601.00;0.23;119.34;0.00;0.00;0.62;;;;;33.40;1.00;;;;;;2581778;55;1124;-85
2021/07/18 08:21:32;0.00;0.00;0.62;0.00;0.00;0.62;;;;;34.00;1.00;;;;;;2581782;55;1117;-84
2021/07/18 08:23:59;252038.00;0.84;435.46;34705.00;0.12;60.73;;;;;33.70;1.00;;;;;;2581794;55;986;-86
2021/07/18 08:26:26;0.00;0.00;0.62;0.00;0.00;0.62;;;;;33.00;1.00;;;;;;2583966;55;1276;-84
2021/07/18 08:28:53;214786.00;0.72;371.37;85029.00;0.28;147.72;;;;;33.30;1.00;;;;;;2581792;55;1086;-85
2021/07/18 08:31:20;20617.00;0.07;36.34;0.00;0.00;0.62;;;;;33.40;1.00;;;;;;2581719;55;1888;-85
2021/07/18 08:33:48;54985.00;0.18;95.81;0.00;0.00;0.62;;;;;33.30;1.00;;;;;;2583961;55;970;-87
2021/07/18 08:36:15;75667.00;0.25;131.55;0.00;0.00;0.62;;;;;32.10;1.00;;;;;;2581657;55;1345;-85
2021/07/18 08:38:42;69248.00;0.23;120.46;0.00;0.00;0.62;;;;;32.20;1.00;;;;;;2581575;55;1055;-85
2021/07/18 08:41:09;0.00;0.00;0.62;0.00;0.00;0.62;;;;;32.70;1.00;;;;;;2581638;55;1077;-85
2021/07/18 08:43:36;66645.00;0.22;115.96;0.00;0.00;0.62;;;;;33.40;1.00;;;;;;2581794;55;1083;-86
2021/07/18 08:46:03;46289.00;0.15;80.77;0.00;0.00;0.62;;;;;33.20;1.00;;;;;;2581734;55;1278;-86
2021/07/18 08:48:31;70279.00;0.23;122.24;0.00;0.00;0.62;;;;;32.30;1.00;;;;;;2581765;55;1061;-86
2021/07/18 08:51:00;374505.00;1.25;645.98;62493.00;0.21;108.79;;;;;32.40;1.00;;;;;;2581602;55;947;-86
2021/07/18 08:53:27;0.00;0.00;0.62;0.00;0.00;0.62;;;;;32.40;1.00;;;;;;2581615;55;1974;-87
2021/07/18 08:55:55;0.00;0.00;0.62;0.00;0.00;0.62;;;;;31.50;1.00;;;;;;2581737;55;1401;-88
2021/07/18 08:58:22;139386.00;0.46;241.51;44287.00;0.15;77.30;;;;;31.20;1.00;;;;;;2581772;55;1015;-88
2021/07/18 09:00:49;0.00;0.00;0.62;0.00;0.00;0.62;;;;;31.60;1.00;;;;;;2581723;55;1055;-86
2021/07/18 09:03:17;0.00;0.00;0.62;0.00;0.00;0.62;;;;;31.70;1.00;;;;;;2581777;55;1179;-86
2021/07/18 09:05:45;0.00;0.00;0.62;0.00;0.00;0.62;;;;;31.90;1.00;;;;;;2581740;55;1386;-87
2021/07/18 09:08:20;90902.00;0.30;157.87;16481.00;0.05;29.18;;;;;31.60;1.00;;;;;;2581795;55;1017;-85
2021/07/18 09:10:48;0.00;0.00;0.62;0.00;0.00;0.62;;;;;32.10;1.00;;;;;;2581737;55;1054;-86
2021/07/18 09:13:19;19490.00;0.06;34.39;0.00;0.00;0.62;;;;;32.50;1.00;;;;;;2581719;55;1952;-86
2021/07/18 09:15:48;25279.00;0.08;44.41;0.00;0.00;0.62;;;;;32.40;1.00;;;;;;2581700;55;1370;-86
2021/07/18 09:18:17;86317.00;0.29;149.95;0.00;0.00;0.62;;;;;32.40;1.00;;;;;;2581631;55;1109;-86
2021/07/18 09:20:45;0.00;0.00;0.62;0.00;0.00;0.62;;;;;31.80;1.00;;;;;;2581761;55;1133;-86
2021/07/18 09:23:15;82523.00;0.28;143.40;0.00;0.00;0.62;;;;;31.50;1.00;;;;;;2581754;55;1046;-86
2021/07/18 09:25:45;0.00;0.00;0.62;0.00;0.00;0.62;;;;;31.40;1.00;;;;;;2581717;55;1352;-86
2021/07/18 09:28:14;0.00;0.00;0.62;0.00;0.00;0.62;;;;;31.00;1.00;;;;;;2581755;55;1113;-84
2021/07/18 09:30:41;219820.00;0.73;380.03;77952.00;0.26;135.50;;;;;29.70;1.00;;;;;;2581691;55;988;-84
2021/07/18 09:33:20;131047.00;0.44;227.13;0.00;0.00;0.62;;;;;28.60;1.00;;;;;;2581705;55;1941;-83
2021/07/18 09:35:47;104990.00;0.35;182.18;39806.00;0.13;69.55;;;;;28.50;1.00;;;;;;2581753;55;1417;-84
2021/07/18 09:38:21;0.00;0.00;0.62;0.00;0.00;0.62;;;;;28.10;1.00;;;;;;2581729;55;1069;-84
2021/07/18 09:40:58;27204.00;0.09;47.74;0.00;0.00;0.62;;;;;28.50;1.00;;;;;;2581751;55;1093;-86
2021/07/18 09:43:28;81387.00;0.27;141.43;0.00;0.00;0.62;;;;;29.00;1.00;;;;;;2581754;55;1054;-87
2021/07/18 09:45:59;83873.00;0.28;145.73;0.00;0.00;0.62;;;;;29.30;1.00;;;;;;2581697;55;1367;-84
2021/07/18 09:48:40;88260.00;0.29;153.30;0.00;0.00;0.62;;;;;29.00;1.00;;;;;;2581740;55;1112;-84
2021/07/18 09:51:09;0.00;0.00;0.62;0.00;0.00;0.62;;;;;28.90;1.00;;;;;;2581697;55;1061;-85
2021/07/18 09:53:36;175899.00;0.59;304.43;0.00;0.00;0.62;;;;;28.30;1.00;;;;;;2583607;55;1963;-84
2021/07/18 09:56:08;55321.00;0.18;96.39;0.00;0.00;0.62;;;;;28.10;1.00;;;;;;2581704;55;1339;-84
2021/07/18 09:58:36;318667.00;1.06;550.01;57734.00;0.19;100.56;;;;;28.20;1.00;;;;;;2581736;55;1035;-84
2021/07/18 10:01:04;18425.00;0.06;32.54;0.00;0.00;0.62;;;;;28.50;1.00;;;;;;2581700;55;1101;-84
2021/07/18 10:03:31;162931.00;0.54;282.09;43624.00;0.15;76.16;;;;;28.00;1.00;;;;;;2581721;55;1026;-84
2021/07/18 10:06:06;0.00;0.00;0.62;0.00;0.00;0.62;;;;;27.90;1.00;;;;;;2581661;55;1257;-85
2021/07/18 10:08:34;0.00;0.00;0.62;0.00;0.00;0.62;;;;;27.80;1.00;;;;;;2581709;55;1106;-84
2021/07/18 10:11:01;34747.00;0.12;60.80;0.00;0.00;0.62;;;;;28.20;1.00;;;;;;2581723;55;1117;-83
2021/07/18 10:13:30;0.00;0.00;0.62;0.00;0.00;0.62;;;;;28.10;1.00;;;;;;2581656;55;1936;-84
2021/07/18 10:15:57;81612.00;0.27;141.82;0.00;0.00;0.62;;;;;28.30;1.00;;;;;;2581659;55;1351;-84
2021/07/18 10:18:23;0.00;0.00;0.62;0.00;0.00;0.62;;;;;28.00;1.00;;;;;;2581689;55;1086;-84